Dobrodošli na spletni strani vremenske postaje Senovo. Vse informacije so informativnega značaja, saj vremenska postaja ni del državne mreže meteoroloških postaj. AKTUALNIH OBVESTIL NI.


Sneg/Led Od: 21-02-2018 00:00 Do: 23-02-2018 23:59 Opozorilo za: Sneg/Led Stopnja: Rumena info button
Veter Od: 21-02-2018 00:00 Do: 22-02-2018 23:59 Opozorilo za: Veter Stopnja: Rumena info button

Pogled proti Armezu več informacij Pogled proti Armezu


Lisca več informacij Lisca


Radar strel več informacij blitzortung!


opozorilo za sneg/led več informacij rain snow radar


Obiščite še:

Template documentation
and downloads

And another site



Weather Underground, zgodovina - Tekstovno

Dnevni povzetek za Januar 14, 2017 Enote:  Metrično    Angleško   Obe
« Predhodni Dan
Naslednji Dan »
Dnevni Tedenski Mesečni Letni Po meri
  Višja: Nižja: Povprečje:
Temperatura: -17.8 °C -21.1 °C -18.8 °C
Točka rosišča: -17.8 °C -21.7 °C -19.4 °C
Vlažnost: Humidity % 86 % 92 %
Hitrost vetra: 0 km/h 0 km/h 0.6 km/h
Sunki vetra: 0 km/h - -
Veter:- - South
Zračni tlak: 0 hPa 33822.8 hPa -
Padavine: 7.62 mm    
Historical Graphs
 
 
Tabelarni podarki za Januar 14, 2017
Čas Temperatura Točka rosišča Zračni tlak Veter Hitrost vetra Sunki vetra Vlažnost Intenziteta padavin (urna)
-17.8 °C -17.8 °C 0 hPa Calm     Humidity % 0 mm
00:01 -17.8 °C -18.2 °C 33856.6 hPa Calm     96 % 20.32 mm
00:06 -17.9 °C -18.2 °C 33856.6 hPa Calm     96 % 20.32 mm
00:11 -17.9 °C -18.2 °C 33856.6 hPa Calm     96 % 20.32 mm
00:16 -17.9 °C -18.2 °C 33856.6 hPa Calm     96 % 12.7 mm
00:21 -17.9 °C -18.2 °C 33856.6 hPa Calm     96 % 12.7 mm
00:26 -17.9 °C -18.2 °C 33822.8 hPa Calm     96 % 12.7 mm
00:31 -17.9 °C -18.2 °C 33822.8 hPa Calm     96 % 12.7 mm
00:36 -17.9 °C -18.2 °C 33822.8 hPa Calm     96 % 12.7 mm
00:41 -17.9 °C -18.2 °C 33856.6 hPa Calm     96 % 7.62 mm
00:46 -17.9 °C -18.2 °C 33856.6 hPa Calm     96 % 7.62 mm
00:51 -17.9 °C -18.2 °C 33856.6 hPa Calm     96 % 7.62 mm
00:56 -17.9 °C -18.2 °C 33856.6 hPa Calm     96 % 7.62 mm
01:01 -17.9 °C -18.2 °C 33856.6 hPa Calm     96 % 7.62 mm
01:06 -17.9 °C -18.2 °C 33856.6 hPa Calm     96 % 7.62 mm
01:11 -18 °C -18.3 °C 33890.5 hPa Calm     96 % 0 mm
01:16 -18 °C -18.3 °C 33890.5 hPa Calm     96 % 0 mm
01:21 -17.9 °C -18.2 °C 33890.5 hPa Calm     96 % 0 mm
01:26 -17.9 °C -18.2 °C 33890.5 hPa Calm     96 % 0 mm
01:31 -17.9 °C -18.2 °C 33890.5 hPa Calm     96 % 0 mm
01:36 -17.9 °C -18.2 °C 33890.5 hPa Calm     96 % 0 mm
01:41 -17.9 °C -18.2 °C 33890.5 hPa Calm     96 % 0 mm
01:47 -17.9 °C -18.2 °C 33890.5 hPa Calm     96 % 0 mm
01:52 -17.9 °C -18.2 °C 33890.5 hPa Calm     96 % 0 mm
01:57 -18 °C -18.3 °C 33890.5 hPa Calm     96 % 0 mm
01:58 -18 °C -18.3 °C 33890.5 hPa Calm     96 % 0 mm
02:03 -18 °C -18.3 °C 33890.5 hPa Calm     96 % 0 mm
02:08 -18.1 °C -18.4 °C 33890.5 hPa Calm     96 % 0 mm
02:13 -18.1 °C -18.4 °C 33924.3 hPa Calm     96 % 0 mm
02:18 -18.1 °C -18.4 °C 33924.3 hPa Calm     96 % 0 mm
02:23 -18.1 °C -18.4 °C 33924.3 hPa Calm     96 % 0 mm
02:28 -18.1 °C -18.4 °C 33924.3 hPa Calm     96 % 0 mm
02:33 -18.1 °C -18.5 °C 33924.3 hPa Calm     95 % 0 mm
02:38 -18.1 °C -18.4 °C 33924.3 hPa Calm     96 % 0 mm
02:43 -18.1 °C -18.4 °C 33958.2 hPa Calm     96 % 0 mm
02:48 -18.2 °C -18.6 °C 33958.2 hPa Calm     95 % 0 mm
02:53 -18.2 °C -18.6 °C 33958.2 hPa Calm     95 % 0 mm
02:58 -18.2 °C -18.6 °C 33924.3 hPa Calm     95 % 0 mm
03:03 -18.2 °C -18.6 °C 33924.3 hPa Calm     95 % 0 mm
03:08 -18.3 °C -18.7 °C 33924.3 hPa Calm     95 % 0 mm
03:13 -18.3 °C -18.7 °C 33924.3 hPa Calm     95 % 0 mm
03:18 -18.3 °C -18.7 °C 33924.3 hPa Calm     95 % 0 mm
03:23 -18.3 °C -18.7 °C 33924.3 hPa Calm     96 % 0 mm
03:28 -18.3 °C -18.7 °C 33924.3 hPa Calm     96 % 0 mm
03:33 -18.3 °C -18.7 °C 33924.3 hPa Calm     96 % 0 mm
03:39 -18.4 °C -18.7 °C 33924.3 hPa Calm     96 % 0 mm
03:44 -18.4 °C -18.8 °C 33890.5 hPa Calm     96 % 0 mm
03:49 -18.4 °C -18.8 °C 33890.5 hPa Calm     96 % 0 mm
03:54 -18.5 °C -18.8 °C 33890.5 hPa Calm     96 % 0 mm
03:59 -18.5 °C -18.8 °C 33924.3 hPa Calm     96 % 0 mm
04:04 -18.6 °C -18.9 °C 33924.3 hPa Calm     95 % 0 mm
04:09 -18.6 °C -19 °C 33924.3 hPa Calm     95 % 0 mm
04:14 -18.6 °C -19 °C 33924.3 hPa Calm     95 % 0 mm
04:19 -18.7 °C -19.1 °C 33924.3 hPa Calm     95 % 0 mm
04:24 -18.7 °C -19.1 °C 33924.3 hPa Calm     95 % 0 mm
04:29 -18.7 °C -19.1 °C 33924.3 hPa Calm     95 % 0 mm
04:34 -18.8 °C -19.2 °C 33924.3 hPa Calm     95 % 0 mm
04:39 -18.8 °C -19.2 °C 33924.3 hPa Calm     95 % 0 mm
04:44 -18.8 °C -19.2 °C 33924.3 hPa Calm     95 % 0 mm
04:49 -18.9 °C -19.3 °C 33924.3 hPa Calm     95 % 0 mm
04:54 -18.9 °C -19.3 °C 33924.3 hPa Calm     95 % 0 mm
04:59 -19.1 °C -19.4 °C 33958.2 hPa Calm     95 % 0 mm
05:04 -19.1 °C -19.4 °C 33958.2 hPa Calm     95 % 0 mm
05:09 -19.2 °C -19.6 °C 33958.2 hPa Calm     94 % 0 mm
05:14 -19.2 °C -19.7 °C 33958.2 hPa Calm     94 % 0 mm
05:19 -19.3 °C -19.8 °C 33958.2 hPa Calm     94 % 0 mm
05:24 -19.3 °C -19.8 °C 33958.2 hPa Calm     94 % 0 mm
05:29 -19.4 °C -19.8 °C 33992.1 hPa Calm     94 % 0 mm
05:34 -19.4 °C -19.9 °C 33992.1 hPa Calm     94 % 0 mm
05:39 -19.4 °C -19.9 °C 33992.1 hPa Calm     94 % 0 mm
05:44 -19.4 °C -19.9 °C 33992.1 hPa Calm     94 % 0 mm
05:49 -19.4 °C -19.9 °C 33992.1 hPa Calm     94 % 0 mm
05:54 -19.4 °C -19.9 °C 33992.1 hPa Calm     94 % 0 mm
05:59 -19.4 °C -19.8 °C 33992.1 hPa Calm     94 % 0 mm
06:04 -19.4 °C -19.8 °C 33992.1 hPa Calm     94 % 0 mm
06:09 -19.3 °C -19.7 °C 33958.2 hPa Calm     95 % 0 mm
06:14 -19.3 °C -19.7 °C 33958.2 hPa Calm     95 % 0 mm
06:19 -19.3 °C -19.7 °C 33958.2 hPa Calm     95 % 0 mm
06:24 -19.3 °C -19.7 °C 33992.1 hPa Calm     95 % 0 mm
06:29 -19.3 °C -19.7 °C 33992.1 hPa Calm     95 % 0 mm
06:34 -19.3 °C -19.7 °C 33992.1 hPa Calm     95 % 0 mm
06:39 -19.2 °C -19.6 °C 33992.1 hPa Calm     95 % 0 mm
06:44 -19.2 °C -19.6 °C 33992.1 hPa Calm     95 % 0 mm
06:49 -19.2 °C -19.5 °C 33992.1 hPa Calm     96 % 0 mm
06:54 -19.2 °C -19.5 °C 34029.3 hPa Calm     96 % 0 mm
06:59 -19.2 °C -19.5 °C 34029.3 hPa Calm     96 % 0 mm
07:04 -19.2 °C -19.5 °C 34029.3 hPa Calm     96 % 0 mm
07:09 -19.2 °C -19.5 °C 34029.3 hPa Calm     96 % 0 mm
07:14 -19.2 °C -19.5 °C 34029.3 hPa Calm     96 % 0 mm
07:20 -19.2 °C -19.5 °C 34029.3 hPa Calm     96 % 0 mm
07:25 -19.2 °C -19.5 °C 34029.3 hPa Calm     96 % 0 mm
07:30 -19.1 °C -19.4 °C 34029.3 hPa Calm     96 % 0 mm
07:35 -19.1 °C -19.4 °C 34029.3 hPa Calm     96 % 0 mm
07:40 -19.1 °C -19.4 °C 34029.3 hPa Calm     96 % 0 mm
07:45 -19.1 °C -19.4 °C 34029.3 hPa Calm     96 % 0 mm
07:50 -19.1 °C -19.4 °C 34029.3 hPa Calm     96 % 0 mm
07:55 -19.1 °C -19.4 °C 34063.2 hPa Calm     96 % 0 mm
08:00 -19.1 °C -19.3 °C 34063.2 hPa Calm     96 % 0 mm
08:05 -19.1 °C -19.3 °C 34063.2 hPa Calm     96 % 0 mm
08:10 -19.1 °C -19.3 °C 34063.2 hPa Calm     96 % 0 mm
08:15 -19.1 °C -19.3 °C 34063.2 hPa Calm     96 % 0 mm
08:20 -19.1 °C -19.3 °C 34063.2 hPa Calm     96 % 0 mm
08:25 -19.1 °C -19.3 °C 34063.2 hPa Calm     96 % 0 mm
08:30 -19.1 °C -19.3 °C 34063.2 hPa Calm     96 % 0 mm
08:35 -19.1 °C -19.3 °C 34063.2 hPa Calm     96 % 0 mm
08:40 -19 °C -19.3 °C 34063.2 hPa Calm     96 % 0 mm
08:45 -19 °C -19.3 °C 34063.2 hPa Calm     96 % 0 mm
08:50 -18.9 °C -19.3 °C 34063.2 hPa Calm     96 % 0 mm
08:55 -18.9 °C -19.3 °C 34029.3 hPa Calm     96 % 0 mm
09:00 -18.9 °C -19.2 °C 34029.3 hPa Calm     96 % 0 mm
09:05 -18.8 °C -19.2 °C 34029.3 hPa Calm     95 % 0 mm
09:11 -18.8 °C -19.2 °C 34029.3 hPa Calm     95 % 0 mm
09:16 -18.7 °C -19.1 °C 34029.3 hPa Calm     95 % 0 mm
09:21 -18.7 °C -19.1 °C 34029.3 hPa Calm     95 % 0 mm
09:26 -18.7 °C -19.1 °C 34063.2 hPa Calm     95 % 0 mm
09:31 -18.6 °C -19 °C 34063.2 hPa Calm     95 % 0 mm
09:36 -18.6 °C -19 °C 34063.2 hPa Calm     95 % 0 mm
09:41 -18.6 °C -19 °C 34063.2 hPa Calm     95 % 0 mm
09:46 -18.6 °C -19 °C 34063.2 hPa Calm     95 % 0 mm
09:51 -18.6 °C -19 °C 34063.2 hPa Calm     95 % 0 mm
09:56 -18.6 °C -18.9 °C 34063.2 hPa Calm     95 % 0 mm
10:01 -18.4 °C -18.8 °C 34063.2 hPa Calm     95 % 0 mm
10:06 -18.3 °C -18.7 °C 34063.2 hPa Calm     95 % 0 mm
10:11 -18.1 °C -18.5 °C 34097 hPa Calm     95 % 0 mm
10:16 -18 °C -18.4 °C 34097 hPa Calm     95 % 0 mm
10:21 -17.9 °C -18.3 °C 34097 hPa Calm     95 % 0 mm
10:26 -17.8 °C -18.2 °C 34097 hPa Calm     95 % 0 mm
10:31 -17.8 °C -18.2 °C 34097 hPa Calm     95 % 0 mm
10:36 -17.7 °C -18.1 °C 34097 hPa Calm     95 % 0 mm
10:41 -17.7 °C -18.1 °C 34097 hPa Calm     95 % 0 mm
10:46 -17.7 °C -18.1 °C 34097 hPa Calm     95 % 0 mm
10:51 -17.6 °C -18 °C 34097 hPa Calm     95 % 0 mm
10:56 -17.6 °C -17.9 °C 34097 hPa Calm     95 % 0 mm
11:01 -17.6 °C -17.9 °C 34097 hPa Calm     95 % 0 mm
11:06 -17.4 °C -17.8 °C 34097 hPa Calm     95 % 0 mm
11:11 -17.4 °C -17.8 °C 34097 hPa Calm     95 % 0 mm
11:16 -17.4 °C -17.8 °C 34097 hPa Calm     95 % 0 mm
11:21 -17.4 °C -17.9 °C 34097 hPa Calm     94 % 0 mm
11:26 -17.3 °C -17.7 °C 34097 hPa Calm     95 % 0 mm
11:31 -17.2 °C -17.7 °C 34097 hPa Calm     94 % 0 mm
11:36 -17.2 °C -17.7 °C 34097 hPa Calm     94 % 0 mm
11:41 -17 °C -17.6 °C 34097 hPa Calm     93 % 0 mm
11:46 -16.9 °C -17.4 °C 34097 hPa Calm     93 % 0 mm
11:51 -16.6 °C -17.2 °C 34097 hPa Calm     93 % 0 mm
11:56 -16.5 °C -17.1 °C 34097 hPa Calm     93 % 0 mm
12:01 -16.5 °C -17.2 °C 34097 hPa Calm     92 % 0 mm
12:06 -16.5 °C -17.2 °C 34097 hPa Calm     92 % 0 mm
12:11 -16.5 °C -17.2 °C 34097 hPa Calm     91 % 0 mm
12:16 -16.5 °C -17.2 °C 34097 hPa Calm     91 % 0 mm
12:21 -16.5 °C -17.3 °C 34097 hPa Calm     90 % 0 mm
12:26 -16.6 °C -17.4 °C 34063.2 hPa SSE 2.1 km/h 9.3 km/h 90 % 0 mm
12:31 -16.6 °C -17.4 °C 34063.2 hPa SSE 5.5 km/h 9.8 km/h 90 % 0 mm
12:36 -16.6 °C -17.4 °C 34063.2 hPa SSE 6 km/h 9.8 km/h 90 % 0 mm
12:41 -16.5 °C -17.4 °C 34063.2 hPa SSE 3.9 km/h 8 km/h 89 % 0 mm
12:47 -16.6 °C -17.4 °C 34063.2 hPa SSE 1 km/h 6.4 km/h 89 % 0 mm
12:52 -16.6 °C -17.4 °C 34063.2 hPa SSE 1.6 km/h 9.3 km/h 90 % 0 mm
12:57 -16.7 °C -17.6 °C 34063.2 hPa SSE 5.5 km/h 10.3 km/h 89 % 0 mm
13:02 -16.7 °C -17.6 °C 34063.2 hPa SSE 7.7 km/h 12.7 km/h 89 % 0 mm
13:07 -16.7 °C -17.6 °C 34063.2 hPa SSE 7.7 km/h 12.7 km/h 89 % 0 mm
13:12 -16.6 °C -17.5 °C 34063.2 hPa SSE 7.7 km/h 11.1 km/h 89 % 0 mm
13:17 -16.6 °C -17.5 °C 34063.2 hPa SSE 6.8 km/h 8.9 km/h 89 % 0 mm
13:22 -16.6 °C -17.5 °C 34063.2 hPa SSE 6 km/h 8.9 km/h 89 % 0 mm
13:27 -16.6 °C -17.6 °C 34063.2 hPa SSE 5.1 km/h 8.9 km/h 88 % 0 mm
13:32 -16.7 °C -17.6 °C 34063.2 hPa SSE 4.7 km/h 8 km/h 89 % 0 mm
13:37 -16.7 °C -17.7 °C 34063.2 hPa SSE 6 km/h 9.8 km/h 88 % 0 mm
13:42 -16.7 °C -17.7 °C 34063.2 hPa SSE 6.9 km/h 9.8 km/h 88 % 0 mm
13:47 -16.7 °C -17.7 °C 34063.2 hPa SSE 5.5 km/h 8.9 km/h 88 % 0 mm
13:52 -16.7 °C -17.7 °C 34063.2 hPa SSE 4.7 km/h 7.6 km/h 88 % 0 mm
13:57 -16.8 °C -17.8 °C 34063.2 hPa SSE 5.6 km/h 9.8 km/h 88 % 0 mm
14:02 -16.8 °C -17.8 °C 34063.2 hPa SSE 5.5 km/h 9.8 km/h 88 % 0 mm
14:07 -16.8 °C -17.8 °C 34063.2 hPa SSE 5 km/h 9.8 km/h 88 % 0 mm
14:12 -16.8 °C -17.8 °C 34063.2 hPa SSE 6 km/h 9.8 km/h 88 % 0 mm
14:17 -16.7 °C -17.7 °C 34063.2 hPa SSE 4.7 km/h 9.3 km/h 88 % 0 mm
14:22 -16.6 °C -17.6 °C 34063.2 hPa SSE 4.2 km/h 8.9 km/h 88 % 0 mm
14:27 -16.5 °C -17.5 °C 34063.2 hPa SSE 4.7 km/h 8.9 km/h 88 % 0 mm
14:32 -16.5 °C -17.5 °C 34063.2 hPa SSE 2.9 km/h 7.6 km/h 88 % 0 mm
14:37 -16.6 °C -17.6 °C 34063.2 hPa SSE 1.8 km/h 7.6 km/h 88 % 0 mm
14:42 -16.6 °C -17.6 °C 34063.2 hPa SSE 2.3 km/h 7.6 km/h 88 % 0 mm
14:47 -16.6 °C -17.6 °C 34063.2 hPa SSE 4.3 km/h 8 km/h 88 % 0 mm
14:52 -16.6 °C -17.6 °C 34063.2 hPa SSE 6 km/h 8 km/h 88 % 0 mm
14:57 -16.6 °C -17.6 °C 34063.2 hPa South 6 km/h 8 km/h 87 % 0 mm
15:02 -16.6 °C -17.7 °C 34063.2 hPa SSW 5.5 km/h 7.6 km/h 87 % 0 mm
15:07 -16.7 °C -17.7 °C 34063.2 hPa SW 4.2 km/h 7.6 km/h 87 % 0 mm
15:12 -16.8 °C -17.8 °C 34097 hPa WSW 2.1 km/h 6.4 km/h 87 % 0 mm
15:17 -16.9 °C -17.9 °C 34097 hPa West 0.5 km/h 4.2 km/h 87 % 0 mm
15:23 -17.1 °C -18.2 °C 34097 hPa Calm     86 % 0 mm
15:28 -17.2 °C -18.4 °C 34097 hPa Calm     86 % 0 mm
15:33 -17.3 °C -18.4 °C 34097 hPa Calm     87 % 0 mm
15:38 -17.5 °C -18.6 °C 34097 hPa Calm     87 % 0 mm
15:43 -17.7 °C -18.7 °C 34097 hPa Calm     87 % 0 mm
15:48 -17.7 °C -18.8 °C 34097 hPa Calm     87 % 0 mm
15:53 -17.9 °C -18.8 °C 34097 hPa Calm   2.9 km/h 88 % 0 mm
15:58 -18 °C -19 °C 34097 hPa West 0.3 km/h 2.9 km/h 88 % 0 mm
16:03 -18.1 °C -19 °C 34097 hPa West 0.3 km/h 2.9 km/h 88 % 0 mm
16:08 -18.2 °C -19.1 °C 34097 hPa Calm     88 % 0 mm
16:13 -18.3 °C -19.2 °C 34130.9 hPa Calm     89 % 0 mm
16:18 -18.4 °C -19.3 °C 34130.9 hPa Calm     89 % 0 mm
16:23 -18.5 °C -19.4 °C 34130.9 hPa Calm     89 % 0 mm
16:28 -18.6 °C -19.4 °C 34130.9 hPa Calm     89 % 0 mm
16:33 -18.6 °C -19.5 °C 34130.9 hPa Calm     89 % 0 mm
16:38 -18.7 °C -19.6 °C 34130.9 hPa Calm     89 % 0 mm
16:43 -18.7 °C -19.6 °C 34130.9 hPa Calm     89 % 0 mm
16:48 -18.8 °C -19.7 °C 34130.9 hPa Calm     89 % 0 mm
16:53 -18.9 °C -19.7 °C 34130.9 hPa Calm     90 % 0 mm
16:58 -19 °C -19.8 °C 34130.9 hPa Calm     90 % 0 mm
17:03 -19.1 °C -19.8 °C 34130.9 hPa Calm     90 % 0 mm
17:08 -19.1 °C -19.9 °C 34130.9 hPa Calm     90 % 0 mm
17:13 -19.2 °C -20 °C 34097 hPa Calm     90 % 0 mm
17:19 -19.3 °C -20.1 °C 34097 hPa Calm     90 % 0 mm
17:24 -19.3 °C -20.1 °C 34097 hPa Calm     90 % 0 mm
17:29 -19.4 °C -20.2 °C 34130.9 hPa Calm     90 % 0 mm
17:34 -19.5 °C -20.3 °C 34130.9 hPa Calm     90 % 0 mm
17:39 -19.4 °C -20.2 °C 34130.9 hPa Calm     90 % 0 mm
17:44 -19.6 °C -20.3 °C 34164.7 hPa Calm     90 % 0 mm
17:49 -19.6 °C -20.4 °C 34164.7 hPa Calm     90 % 0 mm
17:54 -19.6 °C -20.3 °C 34164.7 hPa Calm     91 % 0 mm
17:59 -19.7 °C -20.4 °C 34164.7 hPa Calm     91 % 0 mm
18:04 -19.8 °C -20.4 °C 34164.7 hPa Calm     91 % 0 mm
18:08 -19.9 °C -20.7 °C 34164.7 hPa Calm     90 % 0 mm
18:13 -19.9 °C -20.7 °C 34164.7 hPa Calm     90 % 0 mm
18:18 -19.9 °C -20.7 °C 34164.7 hPa Calm     90 % 0 mm
18:23 -20 °C -20.7 °C 34164.7 hPa Calm     91 % 0 mm
18:28 -20.1 °C -20.8 °C 34164.7 hPa Calm     91 % 0 mm
18:33 -20.1 °C -20.8 °C 34164.7 hPa Calm     91 % 0 mm
18:38 -20.2 °C -20.9 °C 34164.7 hPa Calm     91 % 0 mm
18:43 -20.2 °C -20.9 °C 34164.7 hPa Calm     91 % 0 mm
18:48 -20.3 °C -20.9 °C 34164.7 hPa Calm     91 % 0 mm
18:53 -20.3 °C -20.9 °C 34164.7 hPa Calm     91 % 0 mm
18:58 -20.3 °C -21 °C 34164.7 hPa Calm     91 % 0 mm
19:03 -20.4 °C -21.1 °C 34164.7 hPa Calm     91 % 0 mm
19:08 -20.4 °C -21.2 °C 34164.7 hPa Calm     91 % 0 mm
19:13 -20.5 °C -21.2 °C 34198.6 hPa Calm     91 % 0 mm
19:18 -20.6 °C -21.2 °C 34198.6 hPa Calm     91 % 0 mm
19:23 -20.6 °C -21.3 °C 34198.6 hPa Calm     91 % 0 mm
19:28 -20.7 °C -21.3 °C 34198.6 hPa Calm     91 % 0 mm
19:33 -20.7 °C -21.4 °C 34198.6 hPa Calm     91 % 0 mm
19:38 -20.7 °C -21.4 °C 34198.6 hPa Calm     91 % 0 mm
19:43 -20.8 °C -21.5 °C 34198.6 hPa Calm     91 % 0 mm
19:48 -20.9 °C -21.6 °C 34198.6 hPa Calm     91 % 0 mm
19:53 -20.8 °C -21.4 °C 34198.6 hPa Calm     91 % 0 mm
19:58 -20.8 °C -21.4 °C 34235.8 hPa Calm     91 % 0 mm
20:03 -20.8 °C -21.5 °C 34235.8 hPa Calm     91 % 0 mm
20:08 -20.9 °C -21.6 °C 34235.8 hPa Calm     91 % 0 mm
20:13 -20.9 °C -21.6 °C 34198.6 hPa Calm     91 % 0 mm
20:18 -20.9 °C -21.6 °C 34198.6 hPa Calm     91 % 0 mm
20:23 -20.9 °C -21.6 °C 34198.6 hPa Calm     91 % 0 mm
20:28 -20.9 °C -21.6 °C 34164.7 hPa Calm     91 % 0 mm
20:34 -20.9 °C -21.6 °C 34164.7 hPa Calm     91 % 0 mm
20:39 -21 °C -21.7 °C 34164.7 hPa Calm     91 % 0 mm
20:44 -21 °C -21.7 °C 34198.6 hPa Calm     91 % 0 mm
20:49 -21.1 °C -21.7 °C 34198.6 hPa Calm     91 % 0 mm
20:54 -21 °C -21.7 °C 34198.6 hPa Calm     91 % 0 mm
20:59 -21 °C -21.7 °C 34198.6 hPa Calm     91 % 0 mm
21:04 -21 °C -21.7 °C 34198.6 hPa Calm     91 % 0 mm
21:09 -21.1 °C -21.7 °C 34198.6 hPa Calm     91 % 0 mm
21:14 -21.1 °C -21.7 °C 34235.8 hPa Calm     91 % 0 mm
21:19 -21.1 °C -21.7 °C 34235.8 hPa Calm     91 % 0 mm
21:24 -21.1 °C -21.7 °C 34235.8 hPa Calm     91 % 0 mm
21:29 -21.1 °C -21.7 °C 34269.7 hPa Calm     92 % 0 mm
21:34 -21.1 °C -21.7 °C 34269.7 hPa Calm     92 % 0 mm
21:39 -21.1 °C -21.7 °C 34269.7 hPa Calm     92 % 0 mm
21:44 -21.1 °C -21.7 °C 34269.7 hPa Calm     92 % 0 mm
21:49 -21.1 °C -21.7 °C 34269.7 hPa Calm     92 % 0 mm
21:54 -21.1 °C -21.7 °C 34269.7 hPa Calm     92 % 0 mm
21:59 -21.1 °C -21.7 °C 34269.7 hPa Calm     92 % 0 mm
22:04 -21.1 °C -21.7 °C 34269.7 hPa Calm     92 % 0 mm
22:09 -21.1 °C -21.7 °C 34303.6 hPa Calm     92 % 0 mm
22:14 -21.1 °C -21.7 °C 34303.6 hPa Calm     92 % 0 mm
22:20 -21.1 °C -21.7 °C 34303.6 hPa Calm     92 % 0 mm
22:25 -21.1 °C -21.7 °C 34269.7 hPa Calm     92 % 0 mm
22:30 -21.1 °C -21.7 °C 34269.7 hPa Calm     91 % 0 mm
22:35 -21.1 °C -21.7 °C 34269.7 hPa Calm     92 % 0 mm
22:40 -21.1 °C -21.7 °C 34269.7 hPa Calm     92 % 0 mm
22:45 -21.1 °C -21.7 °C 34269.7 hPa Calm     92 % 0 mm
22:50 -21 °C -21.6 °C 34269.7 hPa Calm     92 % 0 mm
22:55 -21.1 °C -21.7 °C 34269.7 hPa Calm     92 % 0 mm
23:00 -21.1 °C -21.7 °C 34269.7 hPa Calm     92 % 0 mm
23:05 -21.1 °C -21.7 °C 34269.7 hPa Calm     92 % 0 mm
23:10 -21.1 °C -21.7 °C 34269.7 hPa Calm     92 % 0 mm
23:15 -21.1 °C -21.7 °C 34269.7 hPa Calm     92 % 0 mm
23:20 -21.1 °C -21.7 °C 34269.7 hPa Calm     92 % 0 mm
23:25 -21 °C -21.6 °C 34303.6 hPa Calm     92 % 0 mm
23:30 -21 °C -21.6 °C 34303.6 hPa Calm     92 % 0 mm
23:35 -21 °C -21.6 °C 34303.6 hPa Calm     92 % 0 mm
23:40 -21 °C -21.6 °C 34303.6 hPa Calm     92 % 0 mm
23:45 -21 °C -21.6 °C 34303.6 hPa Calm     92 % 0 mm
23:50 -21 °C -21.6 °C 34303.6 hPa Calm     92 % 0 mm
23:55 -21 °C -21.6 °C 34303.6 hPa Calm     92 % 0 mm
Vremenska postaja Senovo
Podatki zbrani iz Weather Underground - 3 mb

Script developed by  Jim McMurry - jmcmurry@mwt.net Adapted for the template by  Wim van der Kuil - Leuven-Template.eu

Vremenski podatki so objavljeni na:

European Weather Network

WeatherCloud

Weather Underground

AWEKAS

HAMweather, WeatherForYou, PWS Weather

MapView

Geostik

Slovenia weather network

Oprema, ki se uporablja:

Vremenski program
Cumulus

Vremenski server
Asus

Cumulus

Asus